Time;durP1;ratioP1;P1;durP2;ratioP2;P2;SDS_P1;SDS_P2;PMS_P1;PMS_P2;Temp;Humidity;BMP_temperature;BMP_pressure;BME280_temperature;BME280_humidity;BME280_pressure;Samples;Min_cycle;Max_cycle;Signal;HPM_P1;HPM_P2
2022/05/23 00:00:12;;;;;;;12.68;7.60;;;24.20;99.90;;;;;;5055984;28;20071;-88
2022/05/23 00:02:37;;;;;;;13.00;6.95;;;24.20;99.90;;;;;;5048514;28;20497;-87
2022/05/23 00:05:04;;;;;;;10.82;7.10;;;24.10;99.90;;;;;;5046675;28;20035;-89
2022/05/23 00:07:33;;;;;;;10.18;6.72;;;24.10;99.90;;;;;;5047503;28;20037;-88
2022/05/23 00:10:00;;;;;;;14.10;6.82;;;24.10;99.90;;;;;;5040550;28;20032;-88
2022/05/23 00:12:26;;;;;;;12.55;7.60;;;24.00;99.90;;;;;;5037176;28;20104;-88
2022/05/23 00:14:52;;;;;;;13.00;6.97;;;24.00;99.90;;;;;;5033524;28;20087;-88
2022/05/23 00:17:19;;;;;;;11.52;7.28;;;24.00;99.90;;;;;;5050839;28;20107;-88
2022/05/23 00:19:45;;;;;;;11.23;6.70;;;23.80;99.90;;;;;;5033507;28;20497;-88
2022/05/23 00:22:11;;;;;;;11.55;7.00;;;23.80;99.90;;;;;;5037798;28;20135;-89
2022/05/23 00:24:36;;;;;;;13.13;6.72;;;23.70;99.90;;;;;;5050534;28;20033;-88
2022/05/23 00:27:04;;;;;;;14.98;7.45;;;23.70;99.90;;;;;;5045317;28;20024;-88
2022/05/23 00:29:30;;;;;;;13.93;7.45;;;23.80;99.90;;;;;;5049330;28;20029;-89
2022/05/23 00:37:24;;;;;;;9.02;6.35;;;23.80;99.90;;;;;;5041289;28;20044;-88
2022/05/23 00:39:50;;;;;;;8.82;6.35;;;23.60;99.90;;;;;;5039658;28;20025;-88
2022/05/23 00:45:04;;;;;;;11.98;6.60;;;23.60;99.90;;;;;;5040309;28;20395;-89
2022/05/23 00:47:33;;;;;;;8.52;5.75;;;23.50;99.90;;;;;;5036064;28;20505;-88
2022/05/23 00:49:59;;;;;;;12.52;6.35;;;23.60;99.90;;;;;;5045631;28;20485;-88
2022/05/23 00:52:33;;;;;;;13.38;6.63;;;23.60;99.90;;;;;;5036668;28;20029;-88
2022/05/23 00:55:03;;;;;;;8.50;6.20;;;23.60;99.90;;;;;;5042951;28;20037;-88
2022/05/23 00:57:33;;;;;;;10.32;6.03;;;23.60;99.90;;;;;;5047100;28;20499;-88
2022/05/23 01:00:01;;;;;;;11.55;6.20;;;23.50;99.90;;;;;;5046867;28;20087;-87
2022/05/23 01:02:29;;;;;;;10.02;6.40;;;23.50;99.90;;;;;;5036227;28;20036;-88
2022/05/23 01:04:55;;;;;;;11.05;6.53;;;23.40;99.90;;;;;;5050072;28;20044;-88
2022/05/23 01:07:20;;;;;;;9.30;6.13;;;23.40;99.90;;;;;;5042411;28;20033;-87
2022/05/23 01:09:48;;;;;;;14.40;6.10;;;23.40;99.90;;;;;;5038850;28;20026;-91
2022/05/23 01:12:14;;;;;;;12.20;6.30;;;23.40;99.90;;;;;;5038903;28;20036;-91
2022/05/23 01:15:00;;;;;;;9.80;6.22;;;23.30;99.90;;;;;;5037771;28;20021;-92
2022/05/23 01:17:28;;;;;;;15.80;6.53;;;23.20;99.90;;;;;;5035546;28;20056;-92
2022/05/23 01:19:54;;;;;;;9.13;6.07;;;23.30;99.90;;;;;;5050910;28;20218;-92
2022/05/23 01:22:47;;;;;;;13.13;6.30;;;23.30;99.90;;;;;;5046641;28;20044;-91
2022/05/23 01:25:19;;;;;;;8.65;6.32;;;23.20;99.90;;;;;;5047364;28;20116;-92
2022/05/23 01:27:46;;;;;;;10.75;6.75;;;23.20;99.90;;;;;;5048490;28;20489;-92
2022/05/23 01:30:13;;;;;;;11.75;6.35;;;23.30;99.90;;;;;;5050177;28;20457;-92
2022/05/23 01:32:39;;;;;;;11.38;6.90;;;23.30;99.90;;;;;;5036443;28;20404;-91
2022/05/23 01:35:07;;;;;;;9.93;6.82;;;23.30;99.90;;;;;;5049920;28;20516;-92
2022/05/23 01:37:32;;;;;;;9.82;6.50;;;23.30;99.90;;;;;;5069540;28;20018;-92
2022/05/23 01:39:58;;;;;;;13.25;6.70;;;23.30;99.90;;;;;;5052115;28;20119;-91
2022/05/23 01:42:24;;;;;;;14.77;6.80;;;23.20;99.90;;;;;;5065101;28;20124;-92
2022/05/23 01:44:49;;;;;;;10.95;7.13;;;23.20;99.90;;;;;;5049505;28;20045;-92
2022/05/23 01:47:20;;;;;;;10.63;7.10;;;23.20;99.90;;;;;;5051838;28;20024;-92
2022/05/23 01:49:46;;;;;;;14.13;6.95;;;23.20;99.90;;;;;;5049227;28;20060;-91
2022/05/23 01:52:12;;;;;;;10.68;6.78;;;23.30;99.90;;;;;;5048223;28;20044;-91
2022/05/23 01:54:38;;;;;;;12.52;6.68;;;23.20;99.90;;;;;;5052610;28;20024;-92
2022/05/23 01:57:07;;;;;;;9.80;6.40;;;23.10;99.90;;;;;;5058105;28;20021;-92
2022/05/23 02:02:17;;;;;;;11.30;6.88;;;23.20;99.90;;;;;;5037090;28;20108;-91
2022/05/23 02:04:43;;;;;;;13.25;6.50;;;23.10;99.90;;;;;;5039524;28;20072;-91
2022/05/23 02:07:08;;;;;;;12.45;6.85;;;23.10;99.90;;;;;;5044795;28;20049;-92
2022/05/23 02:09:34;;;;;;;12.88;7.07;;;23.20;99.90;;;;;;5038108;28;20034;-91
2022/05/23 02:12:01;;;;;;;9.00;6.65;;;23.20;99.90;;;;;;5036374;28;20030;-92
2022/05/23 02:14:27;;;;;;;10.15;7.50;;;23.20;99.90;;;;;;5051182;28;20508;-92
2022/05/23 02:16:53;;;;;;;9.82;6.82;;;23.10;99.90;;;;;;5059140;28;20024;-92
2022/05/23 02:19:18;;;;;;;12.10;7.32;;;23.20;99.90;;;;;;5052184;28;20033;-92
2022/05/23 02:21:44;;;;;;;13.80;7.55;;;23.20;99.90;;;;;;5051919;28;20402;-91
2022/05/23 02:24:10;;;;;;;12.85;7.18;;;22.90;99.90;;;;;;5047738;28;20030;-92
2022/05/23 02:26:36;;;;;;;15.38;7.75;;;23.00;99.90;;;;;;5050133;28;20477;-92
2022/05/23 02:29:03;;;;;;;11.25;6.90;;;22.90;99.90;;;;;;5047457;28;20182;-91
2022/05/23 02:31:29;;;;;;;12.77;7.20;;;22.90;99.90;;;;;;5038741;28;20025;-92
2022/05/23 02:33:55;;;;;;;11.45;7.10;;;22.90;99.90;;;;;;5038601;28;20030;-92
2022/05/23 02:36:21;;;;;;;13.77;7.10;;;22.80;99.90;;;;;;5037201;28;20037;-92
2022/05/23 02:38:46;;;;;;;11.77;6.75;;;22.80;99.90;;;;;;5051042;28;20398;-92
2022/05/23 02:41:12;;;;;;;12.43;7.18;;;22.70;99.90;;;;;;5053937;28;20033;-92
2022/05/23 02:43:38;;;;;;;10.23;6.63;;;22.70;99.90;;;;;;5047966;28;20025;-91
2022/05/23 02:46:04;;;;;;;13.25;7.13;;;22.70;99.90;;;;;;5045013;28;20039;-92
2022/05/23 02:48:29;;;;;;;11.05;6.95;;;22.70;99.90;;;;;;5046360;28;20033;-91
2022/05/23 02:50:55;;;;;;;11.95;7.20;;;22.50;99.90;;;;;;5050895;28;20029;-92
2022/05/23 02:53:21;;;;;;;10.48;6.38;;;22.50;99.90;;;;;;5036026;28;20028;-92
2022/05/23 02:55:46;;;;;;;12.23;6.88;;;22.50;99.90;;;;;;5054536;28;20036;-92
2022/05/23 02:58:12;;;;;;;9.80;6.55;;;22.50;99.90;;;;;;5046853;28;20393;-91
2022/05/23 03:00:38;;;;;;;13.45;6.47;;;22.50;99.90;;;;;;5046652;28;20030;-92
2022/05/23 03:03:06;;;;;;;8.90;6.90;;;22.50;99.90;;;;;;5037537;28;20028;-92
2022/05/23 03:05:52;;;;;;;12.52;6.90;;;22.50;99.90;;;;;;5051715;28;20056;-92
2022/05/23 03:08:22;;;;;;;10.32;6.85;;;22.40;99.90;;;;;;5035035;28;20398;-91
2022/05/23 03:10:49;;;;;;;9.93;6.75;;;22.40;99.90;;;;;;5037827;28;20030;-92
2022/05/23 03:13:15;;;;;;;9.68;6.85;;;22.40;99.90;;;;;;5045713;28;20059;-91
2022/05/23 03:15:41;;;;;;;13.13;6.97;;;22.40;99.90;;;;;;5049306;28;20485;-92
2022/05/23 03:18:07;;;;;;;12.27;7.03;;;22.40;99.90;;;;;;5049966;28;20032;-91
2022/05/23 03:20:33;;;;;;;13.43;6.90;;;22.40;99.90;;;;;;5049871;28;20523;-91
2022/05/23 03:28:31;;;;;;;10.93;7.40;;;22.40;99.90;;;;;;5041296;28;20032;-93
2022/05/23 03:30:57;;;;;;;12.98;7.18;;;22.40;99.90;;;;;;5034641;28;20033;-92
2022/05/23 03:33:22;;;;;;;12.50;7.00;;;22.40;99.90;;;;;;5038430;28;20025;-92
2022/05/23 03:35:48;;;;;;;12.27;7.38;;;22.30;99.90;;;;;;5063278;28;20073;-92
2022/05/23 03:38:14;;;;;;;13.68;7.22;;;22.30;99.90;;;;;;5033309;28;20120;-92
2022/05/23 03:40:41;;;;;;;13.27;7.50;;;22.40;99.90;;;;;;5049606;28;20111;-91
2022/05/23 03:43:07;;;;;;;9.63;7.10;;;22.40;99.90;;;;;;5043332;28;20032;-92
2022/05/23 03:45:34;;;;;;;12.10;6.95;;;22.40;99.90;;;;;;5046432;28;20033;-92
2022/05/23 03:48:00;;;;;;;12.30;6.22;;;22.30;99.90;;;;;;5047027;28;20717;-92
2022/05/23 03:50:28;;;;;;;8.95;5.55;;;22.30;99.90;;;;;;5050893;28;20025;-91
2022/05/23 03:52:54;;;;;;;9.82;6.38;;;22.20;99.90;;;;;;5048730;28;20481;-91
2022/05/23 03:55:21;;;;;;;8.90;6.47;;;22.20;99.90;;;;;;5053420;28;20021;-91
2022/05/23 03:57:47;;;;;;;9.32;6.18;;;22.20;99.90;;;;;;5050536;28;20033;-92
2022/05/23 04:00:13;;;;;;;8.27;6.05;;;22.30;99.90;;;;;;5046079;28;20386;-92
2022/05/23 04:02:40;;;;;;;9.35;5.70;;;22.30;99.90;;;;;;5049272;28;20049;-92
2022/05/23 04:05:07;;;;;;;9.60;6.72;;;22.30;99.90;;;;;;5042657;28;20074;-92
2022/05/23 04:07:36;;;;;;;9.85;6.75;;;22.40;99.90;;;;;;5074198;28;20029;-92
2022/05/23 04:10:07;;;;;;;9.18;5.72;;;22.40;99.90;;;;;;5041641;28;20026;-92
2022/05/23 04:12:33;;;;;;;10.60;5.78;;;22.40;99.90;;;;;;5037839;28;20064;-91
2022/05/23 04:14:59;;;;;;;9.75;6.47;;;22.30;99.90;;;;;;5041075;28;20048;-92
2022/05/23 04:17:24;;;;;;;9.15;5.18;;;22.40;99.90;;;;;;5036815;28;20033;-91
2022/05/23 04:19:50;;;;;;;8.40;5.60;;;22.40;99.90;;;;;;5039860;28;20033;-91
2022/05/23 04:22:16;;;;;;;9.15;5.47;;;22.30;99.90;;;;;;5051590;28;20104;-92
2022/05/23 04:24:41;;;;;;;8.60;5.40;;;22.40;99.90;;;;;;5049114;28;20645;-92
2022/05/23 04:27:07;;;;;;;12.32;6.63;;;22.50;99.90;;;;;;5060693;28;20021;-92
2022/05/23 04:29:32;;;;;;;8.02;5.82;;;22.50;99.90;;;;;;5052866;28;20405;-92
2022/05/23 04:31:58;;;;;;;9.60;5.88;;;22.60;99.90;;;;;;5039669;28;20466;-91
2022/05/23 04:37:08;;;;;;;7.82;5.30;;;22.60;99.90;;;;;;5039944;28;20036;-92
2022/05/23 04:39:34;;;;;;;9.13;4.72;;;22.60;99.90;;;;;;5041779;28;20413;-91
2022/05/23 04:42:00;;;;;;;9.27;5.43;;;22.60;99.90;;;;;;5052735;28;20032;-92
2022/05/23 04:44:27;;;;;;;7.72;5.38;;;22.70;99.90;;;;;;5036617;28;20041;-92
2022/05/23 04:49:41;;;;;;;10.05;5.47;;;22.80;99.90;;;;;;5040802;28;20048;-92
2022/05/23 04:52:12;;;;;;;5.82;5.20;;;22.80;99.90;;;;;;5040680;28;20100;-92
2022/05/23 04:54:38;;;;;;;6.68;4.93;;;22.70;99.90;;;;;;5041880;28;20047;-91
2022/05/23 04:57:05;;;;;;;7.55;5.60;;;22.60;99.90;;;;;;5054046;28;20036;-92
2022/05/23 04:59:31;;;;;;;8.15;5.25;;;22.80;99.90;;;;;;5053387;28;20509;-93
2022/05/23 05:01:57;;;;;;;10.70;5.25;;;22.80;99.90;;;;;;5050547;28;20381;-92
2022/05/23 05:04:22;;;;;;;7.00;5.07;;;22.80;99.90;;;;;;5042713;28;20048;-91
2022/05/23 05:06:48;;;;;;;7.90;5.13;;;22.80;99.90;;;;;;5046314;28;20116;-92
2022/05/23 05:09:14;;;;;;;9.10;5.63;;;22.70;99.90;;;;;;5045662;28;20147;-93
2022/05/23 05:11:40;;;;;;;11.30;5.32;;;22.70;99.90;;;;;;5064207;28;20545;-91
2022/05/23 05:14:05;;;;;;;8.20;5.28;;;22.80;99.90;;;;;;5037666;28;20027;-92
2022/05/23 05:16:32;;;;;;;6.63;5.55;;;22.80;99.90;;;;;;5040161;28;20033;-92
2022/05/23 05:18:58;;;;;;;7.55;5.32;;;22.90;99.90;;;;;;5073022;28;20482;-92
2022/05/23 05:21:25;;;;;;;9.93;5.25;;;22.90;99.90;;;;;;5046658;28;20087;-92
2022/05/23 05:23:50;;;;;;;10.05;5.43;;;22.90;99.90;;;;;;5048370;28;20044;-92
2022/05/23 05:26:16;;;;;;;8.77;5.10;;;23.00;99.90;;;;;;5051760;28;20054;-92
2022/05/23 05:28:42;;;;;;;10.82;5.20;;;23.10;99.90;;;;;;5052344;28;20032;-92
2022/05/23 05:31:10;;;;;;;7.50;4.95;;;23.10;99.90;;;;;;5046741;28;20033;-92
2022/05/23 05:33:40;;;;;;;9.38;5.25;;;23.10;99.90;;;;;;5052680;28;20025;-92
2022/05/23 05:36:18;;;;;;;8.98;5.13;;;23.20;99.90;;;;;;5048174;28;20057;-92
2022/05/23 05:39:15;;;;;;;11.20;5.10;;;23.20;99.90;;;;;;5051475;28;20032;-92
2022/05/23 05:41:48;;;;;;;7.00;5.03;;;23.30;99.90;;;;;;5037181;28;20045;-92
2022/05/23 05:44:19;;;;;;;8.30;5.15;;;23.30;99.90;;;;;;5065414;28;20127;-92
2022/05/23 05:46:50;;;;;;;11.30;5.30;;;23.30;99.90;;;;;;5039489;28;20033;-92
2022/05/23 05:49:20;;;;;;;8.50;4.78;;;23.30;99.90;;;;;;5049686;28;20087;-89
2022/05/23 05:51:49;;;;;;;9.10;5.00;;;23.10;99.90;;;;;;5048264;28;20033;-92
2022/05/23 05:54:21;;;;;;;9.55;5.13;;;23.20;99.90;;;;;;5083818;28;20501;-92
2022/05/23 05:56:47;;;;;;;11.23;5.20;;;23.30;99.90;;;;;;5037876;28;20049;-91
2022/05/23 05:59:14;;;;;;;7.43;5.25;;;23.20;99.90;;;;;;5062000;28;20064;-92
2022/05/23 06:01:40;;;;;;;7.15;5.05;;;23.10;99.90;;;;;;5050249;28;20108;-92
2022/05/23 06:04:06;;;;;;;8.13;5.53;;;23.00;99.90;;;;;;5053873;28;20025;-92
2022/05/23 06:12:00;;;;;;;8.88;5.15;;;23.70;99.90;;;;;;5039323;28;20039;-92
2022/05/23 06:14:26;;;;;;;10.13;5.50;;;23.80;99.90;;;;;;5057149;28;20017;-91
2022/05/23 06:16:52;;;;;;;8.05;4.93;;;23.70;99.90;;;;;;5038623;28;20033;-92
2022/05/23 06:19:17;;;;;;;8.02;4.88;;;23.70;99.90;;;;;;5046149;28;20021;-92
2022/05/23 06:21:43;;;;;;;8.77;4.78;;;23.50;99.90;;;;;;5045600;28;20029;-91
2022/05/23 06:24:09;;;;;;;7.43;4.88;;;23.50;99.90;;;;;;5047956;28;20032;-92
2022/05/23 06:26:34;;;;;;;7.63;4.97;;;23.50;99.90;;;;;;5051095;28;20032;-92
2022/05/23 06:29:00;;;;;;;7.97;4.80;;;23.50;99.90;;;;;;5049710;28;20029;-91
2022/05/23 06:31:25;;;;;;;9.48;5.25;;;23.40;99.90;;;;;;5039582;28;20025;-91
2022/05/23 06:33:51;;;;;;;9.35;4.97;;;23.30;99.90;;;;;;5043737;28;20025;-91
2022/05/23 06:36:18;;;;;;;8.15;4.95;;;23.50;99.90;;;;;;5057096;28;20034;-91
2022/05/23 06:38:43;;;;;;;6.30;4.80;;;23.50;99.90;;;;;;5050699;28;20025;-91
2022/05/23 06:41:10;;;;;;;7.53;4.65;;;23.80;99.90;;;;;;5041732;28;20115;-92
2022/05/23 06:43:38;;;;;;;6.25;4.72;;;24.30;99.90;;;;;;5048736;28;20037;-92
2022/05/23 06:46:04;;;;;;;7.82;4.85;;;24.30;99.90;;;;;;5046951;28;20029;-92
2022/05/23 06:48:31;;;;;;;6.40;4.47;;;24.00;99.90;;;;;;5046520;28;20055;-92
2022/05/23 06:50:57;;;;;;;7.75;4.90;;;24.10;99.90;;;;;;5049413;28;20460;-93
2022/05/23 06:53:24;;;;;;;7.75;5.35;;;24.30;99.90;;;;;;5050988;28;20039;-93
2022/05/23 06:55:51;;;;;;;8.98;5.28;;;24.70;99.90;;;;;;5048261;28;20052;-93
2022/05/23 06:58:19;;;;;;;8.00;5.05;;;24.50;99.90;;;;;;5034603;28;20405;-93
2022/05/23 07:00:45;;;;;;;9.82;5.43;;;24.90;99.90;;;;;;5042620;28;20048;-93
2022/05/23 07:03:11;;;;;;;7.07;4.50;;;25.40;99.90;;;;;;5045582;28;20466;-92
2022/05/23 07:13:50;;;;;;;8.95;4.55;;;25.80;99.90;;;;;;5033987;28;20067;-85
2022/05/23 07:16:17;;;;;;;6.30;4.30;;;25.80;99.90;;;;;;5036371;28;20045;-90
2022/05/23 07:18:44;;;;;;;7.25;4.78;;;26.10;99.90;;;;;;5048003;28;20036;-89
2022/05/23 07:21:10;;;;;;;5.28;4.57;;;26.00;99.90;;;;;;5045698;28;20195;-89
2022/05/23 07:23:36;;;;;;;6.40;4.53;;;26.10;99.90;;;;;;5046929;28;20124;-89
2022/05/23 07:26:09;;;;;;;7.80;5.18;;;26.40;99.90;;;;;;5036669;28;20021;-96
2022/05/23 07:28:35;;;;;;;8.70;4.80;;;26.60;99.90;;;;;;5068849;28;20064;-96
2022/05/23 07:31:02;;;;;;;8.20;4.63;;;26.70;99.90;;;;;;5326443;22;20422;-96
2022/05/23 07:44:51;;;;;;;7.88;4.53;;;26.00;99.90;;;;;;5402411;23;20026;-96
2022/05/23 08:01:29;;;;;;;6.75;3.70;;;25.80;99.90;;;;;;4975408;28;20105;-95
2022/05/23 08:03:55;;;;;;;8.13;3.47;;;25.60;99.90;;;;;;4973079;28;20508;-95
2022/05/23 08:06:21;;;;;;;4.00;3.20;;;25.90;99.90;;;;;;4975907;28;20122;-95
2022/05/23 08:08:47;;;;;;;9.55;4.60;;;25.80;99.90;;;;;;4960108;28;20026;-96
2022/05/23 08:11:13;;;;;;;6.38;3.75;;;25.90;99.90;;;;;;4958629;28;20119;-95
2022/05/23 08:13:42;;;;;;;5.95;3.53;;;26.00;99.90;;;;;;4960373;28;20122;-96
2022/05/23 08:16:08;;;;;;;5.47;3.85;;;25.80;99.90;;;;;;4973397;28;20072;-95
2022/05/23 08:18:34;;;;;;;6.47;3.53;;;25.70;99.90;;;;;;4972645;28;20038;-96
2022/05/23 08:21:00;;;;;;;5.93;3.40;;;25.80;99.90;;;;;;4958209;28;20019;-95
2022/05/23 08:23:27;;;;;;;5.55;3.75;;;25.40;99.90;;;;;;4956674;28;20062;-95
2022/05/23 08:25:53;;;;;;;5.07;3.50;;;25.30;99.90;;;;;;4960616;28;20039;-95
2022/05/23 08:28:19;;;;;;;5.47;3.65;;;25.50;99.90;;;;;;4974427;28;20035;-94
2022/05/23 08:30:45;;;;;;;8.95;3.58;;;25.40;99.90;;;;;;4974289;28;20388;-95
2022/05/23 08:33:11;;;;;;;5.78;3.22;;;25.40;99.90;;;;;;4959127;28;20037;-95
2022/05/23 08:35:37;;;;;;;8.68;3.60;;;25.70;99.90;;;;;;4956830;28;20032;-95
2022/05/23 08:38:04;;;;;;;5.45;3.50;;;26.20;99.90;;;;;;4960075;28;20088;-95
2022/05/23 08:40:58;;;;;;;6.57;4.35;;;26.00;99.90;;;;;;4974728;28;20045;-95
2022/05/23 08:43:48;;;;;;;4.90;3.90;;;26.40;99.90;;;;;;4975023;28;20088;-95
2022/05/23 08:46:25;;;;;;;6.13;3.70;;;26.20;99.90;;;;;;4958812;28;20047;-95
2022/05/23 08:49:10;;;;;;;6.22;3.30;;;26.10;99.90;;;;;;4959698;28;20491;-95
2022/05/23 08:51:48;;;;;;;5.32;3.53;;;25.60;99.90;;;;;;4975156;28;20058;-95
2022/05/23 08:54:31;;;;;;;5.18;3.83;;;25.30;99.90;;;;;;4974899;28;20057;-95
2022/05/23 08:57:01;;;;;;;5.28;3.30;;;25.60;99.90;;;;;;4963495;28;20172;-95
2022/05/23 08:59:38;;;;;;;7.30;3.47;;;25.80;99.90;;;;;;4957946;28;20023;-95
2022/05/23 09:02:11;;;;;;;7.45;3.30;;;26.00;99.90;;;;;;4973237;28;20046;-95
2022/05/23 09:04:44;;;;;;;6.63;3.50;;;26.10;99.90;;;;;;4959187;28;20065;-94
2022/05/23 09:07:50;;;;;;;7.97;3.55;;;26.40;99.90;;;;;;4976896;28;20034;-96
2022/05/23 09:10:29;;;;;;;4.00;3.42;;;26.60;99.90;;;;;;4958436;28;20097;-96
2022/05/23 09:12:55;;;;;;;6.40;3.45;;;26.30;99.90;;;;;;4975677;28;20069;-95
2022/05/23 09:15:22;;;;;;;5.55;3.00;;;26.30;99.90;;;;;;4959307;28;20467;-96
2022/05/23 09:17:54;;;;;;;5.95;3.13;;;26.20;99.90;;;;;;4978848;28;20043;-96
2022/05/23 09:20:28;;;;;;;7.40;3.42;;;26.40;99.90;;;;;;4975501;28;20093;-94
2022/05/23 09:22:58;;;;;;;5.10;3.03;;;26.50;99.90;;;;;;4975168;28;20053;-95
2022/05/23 09:25:26;;;;;;;5.20;3.35;;;26.70;99.90;;;;;;4975586;28;20060;-96
2022/05/23 09:28:28;;;;;;;5.22;3.53;;;26.50;99.90;;;;;;4953063;28;20030;-94
2022/05/23 09:31:00;;;;;;;6.63;3.28;;;26.40;99.90;;;;;;4974738;28;20038;-96
2022/05/23 09:33:29;;;;;;;5.35;3.67;;;26.40;99.90;;;;;;4975225;28;20023;-91
2022/05/23 09:36:08;;;;;;;5.63;3.60;;;26.00;99.90;;;;;;4973719;28;20038;-94
2022/05/23 09:38:45;;;;;;;5.45;3.47;;;25.70;99.90;;;;;;4974067;28;20031;-92
2022/05/23 09:49:52;;;;;;;7.47;3.60;;;27.60;99.90;;;;;;4976488;28;20034;-92
2022/05/23 09:52:32;;;;;;;9.48;4.13;;;26.90;99.90;;;;;;4972401;28;20031;-91
2022/05/23 09:55:01;;;;;;;9.18;3.10;;;26.80;99.90;;;;;;4956099;28;20031;-91
2022/05/23 09:57:42;;;;;;;5.47;3.50;;;27.00;99.90;;;;;;4973154;28;20515;-90
2022/05/23 10:00:17;;;;;;;5.47;3.42;;;27.30;99.90;;;;;;4958119;28;20031;-92
2022/05/23 10:02:54;;;;;;;5.13;3.28;;;27.20;99.90;;;;;;4957119;28;20038;-93
2022/05/23 10:05:30;;;;;;;5.18;3.13;;;27.40;99.90;;;;;;4956386;28;20070;-93
2022/05/23 10:08:05;;;;;;;5.03;3.42;;;27.40;99.90;;;;;;4974421;28;20026;-93
2022/05/23 10:10:36;;;;;;;6.40;3.58;;;27.50;99.90;;;;;;4973287;28;20035;-91
2022/05/23 10:13:34;;;;;;;6.63;3.83;;;27.20;99.90;;;;;;4973386;28;20090;-90
2022/05/23 10:16:21;;;;;;;7.82;3.70;;;27.30;99.90;;;;;;4973206;28;20027;-91
2022/05/23 10:18:54;;;;;;;6.28;3.33;;;27.50;99.90;;;;;;4953080;28;20062;-92
2022/05/23 10:21:31;;;;;;;7.63;3.50;;;27.60;99.90;;;;;;4957579;28;20038;-91
2022/05/23 10:24:12;;;;;;;4.20;3.22;;;27.80;99.90;;;;;;4971765;28;20037;-91
2022/05/23 10:26:48;;;;;;;5.68;3.25;;;27.80;99.90;;;;;;4947461;28;20060;-90
2022/05/23 10:29:44;;;;;;;5.70;3.53;;;28.20;99.90;;;;;;4972675;28;20030;-89
2022/05/23 10:32:13;;;;;;;5.88;3.13;;;28.40;99.90;;;;;;4970402;28;20504;-91
2022/05/23 10:34:52;;;;;;;4.72;3.10;;;28.40;99.90;;;;;;4957217;28;20123;-91
2022/05/23 10:37:23;;;;;;;7.53;3.50;;;28.80;99.90;;;;;;4971433;28;20035;-92
2022/05/23 10:42:55;;;;;;;6.05;3.50;;;28.50;99.90;;;;;;4969567;28;20053;-92
2022/05/23 10:45:36;;;;;;;6.35;4.25;;;29.30;99.90;;;;;;4972897;28;20035;-90
2022/05/23 10:48:25;;;;;;;6.30;3.45;;;29.30;99.90;;;;;;4973058;28;20034;-90
2022/05/23 10:51:00;;;;;;;6.82;3.72;;;29.40;99.90;;;;;;4958614;28;20093;-90
2022/05/23 10:53:47;;;;;;;6.38;3.33;;;28.90;99.90;;;;;;4971864;28;20046;-90
2022/05/23 10:56:37;;;;;;;3.80;3.08;;;29.10;99.90;;;;;;4955373;28;20058;-91
2022/05/23 10:59:02;;;;;;;6.93;3.50;;;29.40;99.90;;;;;;4947509;28;20126;-90
2022/05/23 11:01:37;;;;;;;5.78;3.20;;;29.90;99.90;;;;;;4972518;28;20470;-90
2022/05/23 11:04:28;;;;;;;5.07;3.10;;;29.70;99.90;;;;;;4969411;28;20045;-90
2022/05/23 11:07:22;;;;;;;7.88;3.30;;;29.90;99.90;;;;;;4971907;28;20047;-90
2022/05/23 11:10:23;;;;;;;4.75;3.70;;;29.70;99.90;;;;;;4970851;28;20027;-90
2022/05/23 11:12:57;;;;;;;5.18;3.70;;;30.30;99.90;;;;;;4971509;28;20034;-94
2022/05/23 11:17:57;;;;;;;5.13;3.50;;;30.00;99.90;;;;;;4974064;28;20050;-94
2022/05/23 11:20:51;;;;;;;4.63;3.38;;;29.80;99.90;;;;;;4955413;28;20031;-93
2022/05/23 11:23:43;;;;;;;4.75;3.60;;;28.50;99.90;;;;;;4968115;28;20042;-92
2022/05/23 11:26:21;;;;;;;7.18;3.78;;;28.50;99.90;;;;;;4970348;28;20038;-89
2022/05/23 11:34:52;;;;;;;5.65;3.85;;;27.90;99.90;;;;;;4976203;28;20050;-86
2022/05/23 11:39:54;;;;;;;6.57;3.80;;;27.50;99.90;;;;;;4972421;28;20105;-92
2022/05/23 11:42:34;;;;;;;5.20;3.13;;;27.40;99.90;;;;;;4964226;28;20498;-87
2022/05/23 11:47:51;;;;;;;7.88;3.97;;;26.80;99.90;;;;;;4961394;28;20045;-89
2022/05/23 11:50:23;;;;;;;7.35;4.30;;;26.60;99.90;;;;;;4969712;28;20046;-88
2022/05/23 11:53:11;;;;;;;6.00;4.55;;;26.70;99.90;;;;;;4977100;28;20035;-87
2022/05/23 11:56:10;;;;;;;4.82;3.70;;;26.30;99.90;;;;;;4975409;28;20041;-88
2022/05/23 11:58:41;;;;;;;7.43;4.10;;;26.50;99.90;;;;;;4960779;28;20456;-87
2022/05/23 12:01:13;;;;;;;5.38;4.13;;;26.50;99.90;;;;;;4978396;28;20080;-87
2022/05/23 12:03:51;;;;;;;8.15;3.67;;;27.00;99.90;;;;;;4981658;28;20037;-87
2022/05/23 12:06:19;;;;;;;8.63;4.57;;;27.00;99.90;;;;;;4957699;28;20621;-87
2022/05/23 12:08:57;;;;;;;7.80;4.57;;;26.80;99.90;;;;;;4955418;28;20383;-87
2022/05/23 12:11:24;;;;;;;7.47;4.57;;;27.10;99.90;;;;;;4972347;28;20035;-87
2022/05/23 12:13:51;;;;;;;9.65;4.40;;;27.10;99.90;;;;;;4977098;28;20488;-87
2022/05/23 12:16:17;;;;;;;5.25;4.00;;;27.50;99.90;;;;;;4975155;28;20421;-87
2022/05/23 12:18:48;;;;;;;9.25;4.63;;;27.50;99.90;;;;;;4979750;28;20117;-88
2022/05/23 12:21:40;;;;;;;7.68;4.25;;;27.80;99.90;;;;;;4982030;28;20022;-86
2022/05/23 12:24:26;;;;;;;9.00;4.60;;;28.30;99.90;;;;;;4962896;28;20034;-88
2022/05/23 12:26:58;;;;;;;4.85;3.72;;;29.30;99.90;;;;;;4973782;28;20527;-87
2022/05/23 12:29:24;;;;;;;7.55;3.40;;;31.70;99.90;;;;;;4975025;28;20027;-87
2022/05/23 12:32:08;;;;;;;12.93;2.95;;;33.90;99.90;;;;;;4979981;28;20392;-88
2022/05/23 12:34:43;;;;;;;11.05;2.90;;;31.50;99.90;;;;;;4979829;28;20042;-88
2022/05/23 12:37:28;;;;;;;8.13;2.78;;;31.20;99.90;;;;;;4978083;28;20476;-88
2022/05/23 12:40:06;;;;;;;7.93;2.20;;;31.10;99.90;;;;;;4977674;28;20032;-88
2022/05/23 12:42:37;;;;;;;6.30;1.80;;;30.30;99.90;;;;;;4975101;28;20129;-88
2022/05/23 12:45:35;;;;;;;5.10;2.38;;;28.90;99.90;;;;;;4961718;28;20034;-87
2022/05/23 12:48:37;;;;;;;6.05;1.83;;;28.80;99.90;;;;;;4967221;28;20133;-87
2022/05/23 12:52:02;;;;;;;5.30;1.60;;;28.40;99.90;;;;;;4969333;28;20103;-87
2022/05/23 12:55:01;;;;;;;3.08;1.92;;;27.90;99.90;;;;;;4894590;29;20044;-87
2022/05/23 12:57:42;;;;;;;3.83;1.83;;;28.00;99.90;;;;;;4906107;29;20107;-90
2022/05/23 13:00:16;;;;;;;3.90;2.13;;;28.60;99.90;;;;;;4898793;29;20544;-90
2022/05/23 13:03:02;;;;;;;3.45;1.45;;;29.50;99.90;;;;;;4897232;29;20033;-90
2022/05/23 13:05:36;;;;;;;4.18;1.92;;;31.10;99.90;;;;;;4895262;29;20045;-90
2022/05/23 13:08:18;;;;;;;4.55;1.63;;;31.20;99.90;;;;;;4909009;29;20036;-89
2022/05/23 13:10:48;;;;;;;3.70;1.73;;;30.20;99.90;;;;;;4896605;29;20528;-90
2022/05/23 13:13:23;;;;;;;4.55;2.05;;;29.60;99.90;;;;;;4899622;29;20048;-90
2022/05/23 13:15:49;;;;;;;5.47;2.20;;;29.50;99.90;;;;;;4899726;29;20511;-90
2022/05/23 13:23:47;;;;;;;5.45;2.60;;;28.40;99.90;;;;;;4883036;29;20135;-90
2022/05/23 13:26:13;;;;;;;8.02;2.30;;;28.60;99.90;;;;;;4898815;29;20035;-90
2022/05/23 13:28:44;;;;;;;5.65;2.33;;;28.80;99.90;;;;;;4898758;29;20036;-90
2022/05/23 13:31:23;;;;;;;11.85;2.70;;;28.80;99.90;;;;;;4973092;28;20039;-89
2022/05/23 13:33:48;;;;;;;6.68;2.63;;;28.70;99.90;;;;;;4977036;28;20026;-88
2022/05/23 13:36:14;;;;;;;5.00;2.13;;;28.90;99.90;;;;;;4980690;28;20037;-87
2022/05/23 13:38:43;;;;;;;6.72;2.70;;;28.70;99.90;;;;;;4974055;28;20035;-87
2022/05/23 13:41:26;;;;;;;7.70;2.70;;;28.40;99.90;;;;;;4976390;28;20023;-87
2022/05/23 13:43:52;;;;;;;6.50;2.50;;;28.10;99.90;;;;;;4978860;28;20332;-88
2022/05/23 13:46:37;;;;;;;7.47;2.85;;;27.70;99.90;;;;;;4980026;28;20114;-88
2022/05/23 13:49:08;;;;;;;7.85;3.20;;;27.80;99.90;;;;;;4978730;28;20038;-87
2022/05/23 13:51:51;;;;;;;4.82;2.78;;;27.80;99.90;;;;;;4975382;28;20288;-87
2022/05/23 13:54:26;;;;;;;9.85;3.00;;;28.10;99.90;;;;;;4977145;28;20502;-87
2022/05/23 13:57:01;;;;;;;8.43;2.80;;;28.50;99.90;;;;;;4972660;28;20730;-88
2022/05/23 13:59:33;;;;;;;7.60;3.08;;;29.10;99.90;;;;;;4955647;28;20039;-87
2022/05/23 14:02:09;;;;;;;11.10;3.20;;;29.00;99.90;;;;;;4986626;28;20528;-87
2022/05/23 14:04:39;;;;;;;7.88;3.00;;;29.60;99.90;;;;;;4981172;28;20050;-88
2022/05/23 14:07:13;;;;;;;10.27;2.80;;;29.30;99.90;;;;;;4979763;28;20178;-87
2022/05/23 14:09:51;;;;;;;8.52;2.67;;;29.00;99.90;;;;;;4977122;28;20525;-88
2022/05/23 14:12:26;;;;;;;6.05;2.78;;;28.80;99.90;;;;;;4983088;28;20033;-87
2022/05/23 14:14:59;;;;;;;4.47;2.88;;;28.80;99.90;;;;;;4987881;28;20083;-87
2022/05/23 14:17:40;;;;;;;9.10;2.80;;;28.50;99.90;;;;;;4988499;28;20047;-87
2022/05/23 14:20:29;;;;;;;6.30;2.53;;;28.00;99.90;;;;;;4972477;28;20048;-87
2022/05/23 14:23:10;;;;;;;7.78;3.40;;;28.10;99.90;;;;;;4984961;28;20414;-87
2022/05/23 14:25:41;;;;;;;9.30;2.35;;;27.60;99.90;;;;;;4977308;28;20042;-87
2022/05/23 14:28:18;;;;;;;10.15;2.35;;;27.20;99.90;;;;;;4981704;28;20057;-87
2022/05/23 14:30:49;;;;;;;4.43;1.92;;;26.50;99.90;;;;;;4981873;28;20081;-87
2022/05/23 14:33:31;;;;;;;6.75;2.50;;;25.70;99.90;;;;;;4975860;28;20056;-88
2022/05/23 14:35:58;;;;;;;4.65;2.30;;;26.00;99.90;;;;;;4973976;28;20410;-86